Time;durP1;ratioP1;P1;durP2;ratioP2;P2;SDS_P1;SDS_P2;PMS_P1;PMS_P2;Temp;Humidity;BMP_temperature;BMP_pressure;BME280_temperature;BME280_humidity;BME280_pressure;Samples;Min_cycle;Max_cycle;Signal;HPM_P1;HPM_P2
2023/06/13 00:01:48;;;;;;;9.18;4.05;;;20.00;89.10;;;;;;4990971;28;20050;-87
2023/06/13 00:04:24;;;;;;;7.05;3.92;;;19.90;88.70;;;;;;4992535;28;20053;-87
2023/06/13 00:06:52;;;;;;;9.30;3.58;;;19.90;89.90;;;;;;4989984;28;20042;-88
2023/06/13 00:09:18;;;;;;;6.40;3.85;;;19.90;89.40;;;;;;4987615;28;20038;-88
2023/06/13 00:11:49;;;;;;;11.63;3.67;;;19.80;89.40;;;;;;4986216;28;20074;-87
2023/06/13 00:14:16;;;;;;;9.88;3.72;;;19.80;89.10;;;;;;4985288;28;20046;-88
2023/06/13 00:16:43;;;;;;;8.82;3.55;;;19.70;89.50;;;;;;4978321;28;20051;-87
2023/06/13 00:19:11;;;;;;;6.50;3.92;;;19.70;90.00;;;;;;4990367;28;20097;-88
2023/06/13 00:21:38;;;;;;;6.53;3.53;;;19.60;90.30;;;;;;4968457;28;20051;-88
2023/06/13 00:24:05;;;;;;;7.20;3.63;;;19.60;90.40;;;;;;4987022;28;20081;-89
2023/06/13 00:26:31;;;;;;;6.28;3.75;;;19.60;90.40;;;;;;4978286;28;20073;-88
2023/06/13 00:28:57;;;;;;;5.85;3.47;;;19.50;90.40;;;;;;4989030;28;20073;-88
2023/06/13 00:31:28;;;;;;;9.05;3.83;;;19.50;90.40;;;;;;4985222;28;20096;-88
2023/06/13 00:33:55;;;;;;;5.93;3.17;;;19.40;90.40;;;;;;4971205;28;20786;-89
2023/06/13 00:36:21;;;;;;;6.78;3.88;;;19.40;90.60;;;;;;4979311;28;20097;-88
2023/06/13 00:38:49;;;;;;;9.30;3.63;;;19.40;90.50;;;;;;4977226;28;20062;-89
2023/06/13 00:41:15;;;;;;;6.47;3.35;;;19.40;90.30;;;;;;4965096;28;20051;-89
2023/06/13 00:43:41;;;;;;;6.60;3.58;;;19.40;90.50;;;;;;4986001;28;20054;-89
2023/06/13 00:46:06;;;;;;;6.65;3.42;;;19.30;90.60;;;;;;4981607;28;20027;-89
2023/06/13 00:48:33;;;;;;;6.90;3.88;;;19.30;90.40;;;;;;4980458;28;20454;-87
2023/06/13 00:51:02;;;;;;;9.77;3.53;;;19.20;90.20;;;;;;4975345;28;20126;-90
2023/06/13 00:53:31;;;;;;;5.85;3.47;;;19.20;90.30;;;;;;4960078;28;20101;-89
2023/06/13 00:55:58;;;;;;;11.57;4.00;;;19.20;90.30;;;;;;4984417;28;20559;-88
2023/06/13 00:58:25;;;;;;;5.68;3.47;;;19.10;90.50;;;;;;4979990;28;20047;-89
2023/06/13 01:00:52;;;;;;;7.22;3.40;;;19.10;90.50;;;;;;4983880;28;20073;-89
2023/06/13 01:03:19;;;;;;;7.57;3.85;;;19.10;90.30;;;;;;4988014;28;20043;-89
2023/06/13 01:05:47;;;;;;;7.15;3.40;;;19.00;90.30;;;;;;4987981;28;20038;-90
2023/06/13 01:08:20;;;;;;;6.72;3.83;;;19.00;90.50;;;;;;4983139;28;20045;-89
2023/06/13 01:10:53;;;;;;;8.32;3.78;;;18.90;90.50;;;;;;4987342;28;20505;-89
2023/06/13 01:13:28;;;;;;;10.77;4.20;;;18.90;90.40;;;;;;4968026;28;20038;-89
2023/06/13 01:16:20;;;;;;;11.93;4.43;;;18.90;90.30;;;;;;4989877;28;20350;-88
2023/06/13 01:18:50;;;;;;;7.22;3.80;;;18.90;90.50;;;;;;4996390;28;20058;-89
2023/06/13 01:21:18;;;;;;;9.00;4.13;;;18.80;90.50;;;;;;4990852;28;20188;-89
2023/06/13 01:23:57;;;;;;;8.80;3.70;;;18.80;90.50;;;;;;4991645;28;20030;-89
2023/06/13 01:26:44;;;;;;;8.52;4.38;;;18.80;90.70;;;;;;4980920;28;20042;-89
2023/06/13 01:29:12;;;;;;;9.30;4.22;;;18.70;90.30;;;;;;4960892;28;20054;-89
2023/06/13 01:31:39;;;;;;;9.43;3.85;;;18.70;90.50;;;;;;4985303;28;20039;-90
2023/06/13 01:34:05;;;;;;;7.25;3.88;;;18.60;90.70;;;;;;4977718;28;20057;-89
2023/06/13 01:36:31;;;;;;;5.75;3.67;;;18.60;90.50;;;;;;4986323;28;20035;-90
2023/06/13 01:38:57;;;;;;;9.57;4.13;;;18.60;90.70;;;;;;4977685;28;20418;-90
2023/06/13 01:41:23;;;;;;;7.95;3.90;;;18.60;90.80;;;;;;4978878;28;20114;-89
2023/06/13 01:43:49;;;;;;;6.60;4.00;;;18.50;90.70;;;;;;4986336;28;20414;-90
2023/06/13 01:46:29;;;;;;;6.20;3.95;;;18.50;91.00;;;;;;4977178;28;20034;-90
2023/06/13 01:49:12;;;;;;;7.22;4.15;;;18.40;91.00;;;;;;4979573;28;20045;-89
2023/06/13 01:52:06;;;;;;;8.93;4.25;;;18.40;91.10;;;;;;4963813;28;20050;-89
2023/06/13 01:54:37;;;;;;;7.50;3.87;;;18.30;91.40;;;;;;4971874;28;20229;-89
2023/06/13 01:57:06;;;;;;;9.68;3.90;;;18.20;91.60;;;;;;4969513;28;20293;-90
2023/06/13 01:59:33;;;;;;;8.45;4.20;;;18.10;91.60;;;;;;4965683;28;20042;-90
2023/06/13 02:02:00;;;;;;;7.75;4.03;;;18.10;91.60;;;;;;4977924;28;20178;-90
2023/06/13 02:04:26;;;;;;;8.23;4.53;;;18.00;91.40;;;;;;4986484;28;20046;-90
2023/06/13 02:06:52;;;;;;;8.75;3.65;;;18.00;91.40;;;;;;4984008;28;20050;-91
2023/06/13 02:09:18;;;;;;;7.70;4.15;;;18.00;91.60;;;;;;4983133;28;20038;-89
2023/06/13 02:11:43;;;;;;;9.60;4.55;;;18.00;91.40;;;;;;4981942;28;20378;-90
2023/06/13 02:14:09;;;;;;;10.10;4.25;;;17.90;91.20;;;;;;4973089;28;20148;-90
2023/06/13 02:16:39;;;;;;;7.47;4.25;;;18.00;91.20;;;;;;4985766;28;20039;-90
2023/06/13 02:19:07;;;;;;;9.45;4.45;;;17.90;91.20;;;;;;4980928;28;20105;-87
2023/06/13 02:21:33;;;;;;;7.75;4.38;;;17.90;91.20;;;;;;4983679;28;20547;-89
2023/06/13 02:23:59;;;;;;;9.18;4.30;;;17.80;91.10;;;;;;4987960;28;20057;-90
2023/06/13 02:26:28;;;;;;;11.02;4.72;;;17.80;91.10;;;;;;4974112;28;20048;-90
2023/06/13 02:28:57;;;;;;;6.72;4.05;;;17.80;91.10;;;;;;4985321;28;20065;-90
2023/06/13 02:31:23;;;;;;;7.70;4.22;;;17.80;91.20;;;;;;4979352;28;20127;-90
2023/06/13 02:33:49;;;;;;;6.47;3.90;;;17.90;91.30;;;;;;4970931;28;20100;-91
2023/06/13 02:36:15;;;;;;;9.35;4.75;;;17.80;91.20;;;;;;4985584;28;20133;-90
2023/06/13 02:38:43;;;;;;;7.50;3.97;;;17.70;91.10;;;;;;4986756;28;20050;-89
2023/06/13 02:41:08;;;;;;;15.35;4.50;;;17.70;91.20;;;;;;4982797;28;20127;-90
2023/06/13 02:43:34;;;;;;;8.30;4.53;;;17.60;91.10;;;;;;4987738;28;20050;-90
2023/06/13 02:45:59;;;;;;;7.93;4.57;;;17.70;91.30;;;;;;4984718;28;20073;-90
2023/06/13 02:48:28;;;;;;;12.70;4.10;;;17.60;91.20;;;;;;4989298;28;20053;-91
2023/06/13 02:50:55;;;;;;;10.23;4.95;;;17.60;91.20;;;;;;4984909;28;20043;-91
2023/06/13 02:53:21;;;;;;;9.30;4.88;;;17.60;91.20;;;;;;4981043;28;20505;-90
2023/06/13 02:55:48;;;;;;;10.00;4.90;;;17.60;91.30;;;;;;4985919;28;20053;-90
2023/06/13 02:58:14;;;;;;;10.40;4.82;;;17.60;91.30;;;;;;4975578;28;20042;-90
2023/06/13 03:00:41;;;;;;;7.45;4.60;;;17.60;91.30;;;;;;4978990;28;20059;-89
2023/06/13 03:03:07;;;;;;;12.07;4.70;;;17.50;91.30;;;;;;4983776;28;20054;-90
2023/06/13 03:05:32;;;;;;;10.27;4.45;;;17.60;91.30;;;;;;4983385;28;20139;-88
2023/06/13 03:07:59;;;;;;;8.70;4.68;;;17.50;91.40;;;;;;4978744;28;20042;-92
2023/06/13 03:10:26;;;;;;;11.57;4.68;;;17.40;91.40;;;;;;4983906;28;20043;-91
2023/06/13 03:12:52;;;;;;;9.60;4.85;;;17.40;91.60;;;;;;4992770;28;20148;-91
2023/06/13 03:15:18;;;;;;;8.95;4.90;;;17.40;91.70;;;;;;4983880;28;20042;-91
2023/06/13 03:17:47;;;;;;;9.35;4.70;;;17.40;91.80;;;;;;4992043;28;20050;-92
2023/06/13 03:20:13;;;;;;;6.90;4.03;;;17.40;92.10;;;;;;4991310;28;20041;-90
2023/06/13 03:50:23;;;;;;;7.65;4.90;;;17.00;92.40;;;;;;3248667;26;20058;-91
2023/06/13 03:52:49;;;;;;;8.40;4.75;;;17.00;92.20;;;;;;4975243;28;20075;-91
2023/06/13 03:55:15;;;;;;;8.82;4.97;;;17.00;92.10;;;;;;4997776;28;20042;-90
2023/06/13 03:57:41;;;;;;;8.50;4.80;;;17.00;92.20;;;;;;4999127;28;20512;-90
2023/06/13 04:00:09;;;;;;;10.68;5.18;;;16.90;92.30;;;;;;4985827;28;20034;-91
2023/06/13 04:02:35;;;;;;;8.13;4.78;;;16.80;92.30;;;;;;5001043;28;20061;-87
2023/06/13 04:05:02;;;;;;;8.35;4.45;;;16.80;92.40;;;;;;4999119;28;20485;-88
2023/06/13 04:07:33;;;;;;;7.97;4.63;;;16.80;92.40;;;;;;4977955;28;20102;-89
2023/06/13 04:10:00;;;;;;;8.48;4.80;;;17.00;92.40;;;;;;4964980;28;20038;-90
2023/06/13 04:12:26;;;;;;;9.30;5.15;;;16.80;92.30;;;;;;5000704;28;20056;-91
2023/06/13 04:14:52;;;;;;;8.10;4.57;;;17.00;92.30;;;;;;4967413;28;20034;-92
2023/06/13 04:17:18;;;;;;;7.18;4.40;;;16.80;92.20;;;;;;4980926;28;20121;-90
2023/06/13 04:19:43;;;;;;;8.23;5.05;;;16.80;92.30;;;;;;4981902;28;20034;-89
2023/06/13 04:22:09;;;;;;;8.35;4.88;;;16.40;92.20;;;;;;4984687;28;20042;-89
2023/06/13 04:24:36;;;;;;;9.05;5.07;;;16.80;92.30;;;;;;4982355;28;20038;-91
2023/06/13 04:27:03;;;;;;;11.10;4.55;;;16.80;92.20;;;;;;4966526;28;20038;-90
2023/06/13 04:29:30;;;;;;;7.53;4.90;;;16.80;92.10;;;;;;4985904;28;20078;-91
2023/06/13 04:31:56;;;;;;;10.23;5.05;;;16.80;92.30;;;;;;4970466;28;20043;-91
2023/06/13 04:34:24;;;;;;;10.07;4.95;;;16.70;92.20;;;;;;4992261;28;20054;-90
2023/06/13 04:36:55;;;;;;;8.73;5.22;;;16.80;92.20;;;;;;4984323;28;20070;-90
2023/06/13 04:39:24;;;;;;;8.52;5.00;;;16.80;92.10;;;;;;5002691;28;20069;-90
2023/06/13 04:41:55;;;;;;;7.88;4.95;;;16.70;92.20;;;;;;4994911;28;20058;-96
2023/06/13 04:44:28;;;;;;;8.98;4.78;;;16.70;92.20;;;;;;4960684;28;20130;-80
2023/06/13 04:46:57;;;;;;;10.05;5.50;;;16.70;92.20;;;;;;4991863;28;20347;-80
2023/06/13 04:49:27;;;;;;;7.55;4.30;;;16.80;92.30;;;;;;4960809;28;20066;-80
2023/06/13 04:51:54;;;;;;;10.05;4.88;;;16.80;92.30;;;;;;4966816;28;20066;-80
2023/06/13 04:54:23;;;;;;;7.65;4.68;;;16.90;92.40;;;;;;4975132;28;20038;-80
2023/06/13 04:56:50;;;;;;;10.43;4.65;;;16.90;92.30;;;;;;4952448;28;20042;-80
2023/06/13 04:59:16;;;;;;;7.90;4.40;;;16.90;92.40;;;;;;4992609;28;20152;-80
2023/06/13 05:01:43;;;;;;;9.88;4.70;;;16.90;92.40;;;;;;4992313;28;20053;-80
2023/06/13 05:04:09;;;;;;;9.45;4.75;;;16.90;92.40;;;;;;4974444;28;20038;-80
2023/06/13 05:06:37;;;;;;;6.78;4.55;;;16.90;92.50;;;;;;4974105;28;20054;-80
2023/06/13 05:09:04;;;;;;;6.53;4.20;;;16.90;92.60;;;;;;4989993;28;20066;-82
2023/06/13 05:11:30;;;;;;;7.88;4.45;;;17.00;92.60;;;;;;4996777;28;20038;-88
2023/06/13 05:13:56;;;;;;;7.00;4.05;;;17.00;92.60;;;;;;5016539;28;20051;-94
2023/06/13 05:16:22;;;;;;;8.02;4.72;;;17.00;92.70;;;;;;5003443;28;20046;-95
2023/06/13 05:18:49;;;;;;;8.40;4.50;;;17.00;92.70;;;;;;4985789;28;20038;-94
2023/06/13 05:21:16;;;;;;;10.00;4.10;;;17.00;92.50;;;;;;4969667;28;20043;-96
2023/06/13 05:23:43;;;;;;;9.35;4.93;;;17.00;92.50;;;;;;4987472;28;20046;-93
2023/06/13 05:26:10;;;;;;;10.77;4.82;;;17.00;92.70;;;;;;4993391;28;20070;-93
2023/06/13 05:28:36;;;;;;;10.35;4.53;;;17.00;92.80;;;;;;5004381;28;20069;-95
2023/06/13 05:31:02;;;;;;;11.68;5.32;;;17.00;92.90;;;;;;4991471;28;20050;-95
2023/06/13 05:33:28;;;;;;;7.95;4.55;;;17.00;92.60;;;;;;5008895;28;20039;-94
2023/06/13 05:35:53;;;;;;;6.97;3.92;;;17.00;92.50;;;;;;5008025;28;20034;-93
2023/06/13 05:38:20;;;;;;;6.07;4.07;;;17.00;92.50;;;;;;4997579;28;20125;-91
2023/06/13 05:40:46;;;;;;;7.78;4.35;;;17.00;92.60;;;;;;4990605;28;20054;-93
2023/06/13 05:43:12;;;;;;;8.23;3.95;;;17.00;92.80;;;;;;4987623;28;20038;-93
2023/06/13 05:45:38;;;;;;;7.22;4.30;;;17.00;92.50;;;;;;5001727;28;20581;-92
2023/06/13 05:48:05;;;;;;;9.48;4.45;;;17.00;92.30;;;;;;4982405;28;20062;-92
2023/06/13 05:50:30;;;;;;;7.75;3.53;;;17.10;92.10;;;;;;5002429;28;20046;-92
2023/06/13 05:52:56;;;;;;;8.27;4.25;;;17.00;91.90;;;;;;5002830;28;20054;-93
2023/06/13 05:55:22;;;;;;;6.43;3.85;;;17.10;91.70;;;;;;4983735;28;20595;-93
2023/06/13 05:57:48;;;;;;;6.20;3.97;;;17.10;91.50;;;;;;4981369;28;20045;-88
2023/06/13 06:00:17;;;;;;;6.78;3.47;;;17.10;91.50;;;;;;4982864;28;20042;-89
2023/06/13 06:02:44;;;;;;;9.25;3.97;;;17.20;91.60;;;;;;4970633;28;20094;-84
2023/06/13 06:05:13;;;;;;;8.70;3.75;;;17.20;91.30;;;;;;4965192;28;20417;-83
2023/06/13 06:07:43;;;;;;;6.45;3.80;;;17.20;90.90;;;;;;4971846;28;20054;-83
2023/06/13 06:10:10;;;;;;;6.00;3.47;;;17.30;90.70;;;;;;4991986;28;20043;-85
2023/06/13 06:12:36;;;;;;;10.88;3.75;;;17.30;90.50;;;;;;4973923;28;20121;-87
2023/06/13 06:15:03;;;;;;;6.60;3.22;;;17.40;90.50;;;;;;4968756;28;20077;-89
2023/06/13 06:17:29;;;;;;;7.22;3.72;;;17.40;90.50;;;;;;5001476;28;20042;-88
2023/06/13 06:19:55;;;;;;;9.20;4.10;;;17.50;90.50;;;;;;4961039;28;20474;-85
2023/06/13 06:22:21;;;;;;;9.93;3.75;;;17.60;90.80;;;;;;4994180;28;20042;-86
2023/06/13 06:24:47;;;;;;;8.98;4.03;;;17.60;90.90;;;;;;4994034;28;20121;-86
2023/06/13 06:27:13;;;;;;;8.95;3.33;;;17.70;91.20;;;;;;4992265;28;20050;-86
2023/06/13 06:29:39;;;;;;;8.75;3.28;;;17.70;91.10;;;;;;4989516;28;20038;-85
2023/06/13 06:32:09;;;;;;;6.25;3.58;;;17.80;91.00;;;;;;4961983;28;20749;-87
2023/06/13 06:34:36;;;;;;;9.27;3.92;;;17.80;90.80;;;;;;4973970;28;20109;-86
2023/06/13 06:37:03;;;;;;;6.18;2.80;;;17.80;90.70;;;;;;4976716;28;20054;-89
2023/06/13 06:39:30;;;;;;;7.72;3.60;;;17.90;90.70;;;;;;4993394;28;20105;-89
2023/06/13 06:41:56;;;;;;;6.85;3.40;;;17.90;90.70;;;;;;4980378;28;20043;-88
2023/06/13 06:44:22;;;;;;;9.00;3.95;;;18.00;90.50;;;;;;4960439;28;20429;-90
2023/06/13 06:46:49;;;;;;;9.32;3.40;;;18.00;90.30;;;;;;5004253;28;20038;-90
2023/06/13 06:49:17;;;;;;;9.85;3.53;;;18.10;90.20;;;;;;4999319;28;20046;-90
2023/06/13 06:51:43;;;;;;;11.48;3.22;;;18.10;90.20;;;;;;4997187;28;20049;-90
2023/06/13 06:54:08;;;;;;;6.22;3.13;;;18.20;90.00;;;;;;4980506;28;20061;-91
2023/06/13 06:56:34;;;;;;;8.60;3.15;;;18.30;89.40;;;;;;4987407;28;20035;-90
2023/06/13 06:59:00;;;;;;;9.00;3.40;;;18.40;89.40;;;;;;4957932;28;20573;-91
2023/06/13 07:01:25;;;;;;;8.70;3.58;;;18.40;89.20;;;;;;5000617;28;20129;-90
2023/06/13 07:03:51;;;;;;;5.55;2.60;;;18.50;89.20;;;;;;4976997;28;20050;-91
2023/06/13 07:06:19;;;;;;;8.30;2.88;;;18.60;88.80;;;;;;4988543;28;20111;-90
2023/06/13 07:08:44;;;;;;;7.80;3.28;;;18.70;88.90;;;;;;4975900;28;20405;-90
2023/06/13 07:11:10;;;;;;;6.30;2.80;;;18.90;89.10;;;;;;4996372;28;20041;-90
2023/06/13 07:13:36;;;;;;;7.53;3.05;;;18.90;89.10;;;;;;4981332;28;20057;-89
2023/06/13 07:16:02;;;;;;;6.07;3.15;;;19.10;88.80;;;;;;4964066;28;20034;-89
2023/06/13 07:18:29;;;;;;;7.15;3.22;;;19.20;88.10;;;;;;4979962;28;20046;-87
2023/06/13 07:20:56;;;;;;;8.13;2.92;;;19.40;87.60;;;;;;4979378;28;20065;-89
2023/06/13 07:23:21;;;;;;;6.72;2.78;;;19.60;87.80;;;;;;4981395;28;20038;-89
2023/06/13 07:25:47;;;;;;;8.15;2.92;;;19.70;86.80;;;;;;4980320;28;20274;-90
2023/06/13 07:28:13;;;;;;;6.15;2.70;;;19.90;86.60;;;;;;4965165;28;20047;-88
2023/06/13 07:30:39;;;;;;;8.45;2.90;;;20.10;86.80;;;;;;4983041;28;20054;-87
2023/06/13 07:33:05;;;;;;;4.82;2.60;;;20.20;87.60;;;;;;5001964;28;20042;-89
2023/06/13 07:35:32;;;;;;;6.63;2.45;;;20.40;86.30;;;;;;5003937;28;20493;-89
2023/06/13 07:37:58;;;;;;;5.45;2.83;;;20.60;85.10;;;;;;4996546;28;20039;-88
2023/06/13 07:40:24;;;;;;;10.38;2.75;;;20.70;84.00;;;;;;4998007;28;20046;-87
2023/06/13 07:42:52;;;;;;;5.43;2.72;;;20.90;82.40;;;;;;4979452;28;20097;-87
2023/06/13 07:45:18;;;;;;;7.63;2.80;;;21.00;81.30;;;;;;4980827;28;20113;-89
2023/06/13 07:47:44;;;;;;;7.47;2.25;;;21.10;80.60;;;;;;4998556;28;20062;-88
2023/06/13 07:50:10;;;;;;;11.73;2.72;;;21.20;79.20;;;;;;4992596;28;20113;-89
2023/06/13 07:52:36;;;;;;;6.10;2.40;;;21.30;79.20;;;;;;4997269;28;20531;-89
2023/06/13 07:55:03;;;;;;;9.45;2.60;;;21.40;79.30;;;;;;4983791;28;20097;-89
2023/06/13 07:57:28;;;;;;;9.48;2.75;;;21.50;79.70;;;;;;4986351;28;20429;-90
2023/06/13 07:59:55;;;;;;;5.82;2.72;;;21.70;78.70;;;;;;5001066;28;20062;-90
2023/06/13 08:02:22;;;;;;;8.90;2.47;;;21.70;77.80;;;;;;4984487;28;20038;-88
2023/06/13 08:04:48;;;;;;;5.05;2.10;;;21.90;77.10;;;;;;5001851;28;20038;-90
2023/06/13 08:07:14;;;;;;;5.63;2.15;;;21.90;76.80;;;;;;4981668;28;20041;-89
2023/06/13 08:09:40;;;;;;;6.35;2.42;;;22.10;77.40;;;;;;4964871;28;20464;-88
2023/06/13 08:12:06;;;;;;;6.03;2.28;;;22.20;77.20;;;;;;4964555;28;20377;-90
2023/06/13 08:14:33;;;;;;;7.68;2.40;;;22.30;76.80;;;;;;4977020;28;20047;-89
2023/06/13 08:17:01;;;;;;;4.85;2.50;;;22.40;77.30;;;;;;4993785;28;20042;-89
2023/06/13 08:19:27;;;;;;;8.20;2.42;;;22.50;78.00;;;;;;4998422;28;20031;-87
2023/06/13 08:21:57;;;;;;;6.32;2.58;;;22.60;77.60;;;;;;4998930;28;20035;-85
2023/06/13 08:24:23;;;;;;;6.93;2.50;;;22.70;77.00;;;;;;4979490;28;20056;-88
2023/06/13 08:26:50;;;;;;;5.78;2.60;;;22.80;77.10;;;;;;4996974;28;20549;-89
2023/06/13 08:29:17;;;;;;;4.93;2.53;;;22.90;76.60;;;;;;4997618;28;20077;-88
2023/06/13 08:31:43;;;;;;;5.65;2.78;;;23.00;76.20;;;;;;5002430;28;20053;-90
2023/06/13 08:34:09;;;;;;;7.57;2.60;;;23.10;75.90;;;;;;4976487;28;20043;-89
2023/06/13 08:36:36;;;;;;;5.25;2.65;;;23.20;76.80;;;;;;5003691;28;20564;-88
2023/06/13 08:39:04;;;;;;;7.20;2.50;;;23.20;76.10;;;;;;4979807;28;20100;-88
2023/06/13 08:41:30;;;;;;;4.22;2.38;;;23.30;75.50;;;;;;4997803;28;20053;-89
2023/06/13 08:43:59;;;;;;;7.80;3.10;;;23.40;75.90;;;;;;4996324;28;20039;-88
2023/06/13 08:46:26;;;;;;;11.70;2.97;;;23.50;75.90;;;;;;4977148;28;20481;-88
2023/06/13 08:48:52;;;;;;;6.50;3.00;;;23.60;75.20;;;;;;5001693;28;20116;-89
2023/06/13 08:51:21;;;;;;;7.45;2.80;;;23.60;74.70;;;;;;4977380;28;20487;-89
2023/06/13 08:53:56;;;;;;;6.57;2.47;;;23.70;74.20;;;;;;4992752;28;20038;-89
2023/06/13 08:56:25;;;;;;;8.52;2.83;;;23.70;74.90;;;;;;4989516;28;20171;-89
2023/06/13 08:59:00;;;;;;;6.60;2.50;;;23.80;74.40;;;;;;4974371;28;20053;-89
2023/06/13 09:01:27;;;;;;;6.90;3.03;;;23.90;74.40;;;;;;4993410;28;20058;-89
2023/06/13 09:03:57;;;;;;;6.10;3.03;;;23.90;75.30;;;;;;4996203;28;20073;-89
2023/06/13 09:06:27;;;;;;;7.50;3.15;;;24.00;75.50;;;;;;4976082;28;20046;-88
2023/06/13 09:09:01;;;;;;;4.30;2.83;;;24.10;75.00;;;;;;4975314;28;20046;-89
2023/06/13 09:11:28;;;;;;;5.28;2.70;;;24.20;75.30;;;;;;4995896;28;20042;-89
2023/06/13 09:13:58;;;;;;;8.90;2.83;;;24.30;75.30;;;;;;4995225;28;20046;-89
2023/06/13 09:16:24;;;;;;;6.68;3.38;;;24.40;74.70;;;;;;4996350;28;20053;-89
2023/06/13 09:18:51;;;;;;;4.80;3.20;;;24.50;75.50;;;;;;5007616;28;20041;-89
2023/06/13 09:21:17;;;;;;;5.88;3.05;;;24.60;75.70;;;;;;4997049;28;20042;-89
2023/06/13 09:23:43;;;;;;;6.32;2.83;;;24.60;75.70;;;;;;4979382;28;20039;-89
2023/06/13 09:26:10;;;;;;;10.27;3.28;;;24.80;76.30;;;;;;4996768;28;20049;-88
2023/06/13 09:28:40;;;;;;;6.78;3.05;;;24.80;75.30;;;;;;4978662;28;20038;-88
2023/06/13 09:31:10;;;;;;;5.32;2.83;;;24.90;75.10;;;;;;4980045;28;20037;-88
2023/06/13 09:33:36;;;;;;;4.55;2.70;;;25.00;75.50;;;;;;4996379;28;20460;-89
2023/06/13 09:36:04;;;;;;;5.43;3.20;;;25.10;74.60;;;;;;4995891;28;20042;-88
2023/06/13 09:38:34;;;;;;;6.20;3.08;;;25.20;75.50;;;;;;4986123;28;20101;-88
2023/06/13 09:41:02;;;;;;;7.05;2.72;;;25.30;74.70;;;;;;4976789;28;20058;-88
2023/06/13 09:43:28;;;;;;;6.50;2.90;;;25.30;73.80;;;;;;4982980;28;20049;-89
2023/06/13 09:45:54;;;;;;;7.70;2.83;;;25.30;73.60;;;;;;4962029;28;20042;-88
2023/06/13 09:48:21;;;;;;;12.80;3.20;;;25.40;74.20;;;;;;4978341;28;20478;-88
2023/06/13 09:50:48;;;;;;;7.28;2.95;;;25.40;73.00;;;;;;4993420;28;20070;-89
2023/06/13 09:53:14;;;;;;;6.63;2.83;;;25.50;72.80;;;;;;4994045;28;20112;-88
2023/06/13 09:55:40;;;;;;;6.13;2.80;;;25.50;72.00;;;;;;4993890;28;20042;-89
2023/06/13 09:58:06;;;;;;;5.80;2.85;;;25.50;71.90;;;;;;4993826;28;20066;-89
2023/06/13 10:00:33;;;;;;;5.78;3.00;;;25.50;71.90;;;;;;4996420;28;20117;-88
2023/06/13 10:02:59;;;;;;;7.20;2.75;;;25.60;72.30;;;;;;4973466;28;20047;-88
2023/06/13 10:05:25;;;;;;;6.18;3.08;;;25.60;72.70;;;;;;4979277;28;20050;-87
2023/06/13 10:07:54;;;;;;;9.20;2.80;;;25.70;72.70;;;;;;4963242;28;20046;-87
2023/06/13 10:10:20;;;;;;;7.28;2.90;;;25.70;72.60;;;;;;4995675;28;20038;-87
2023/06/13 10:12:56;;;;;;;7.18;2.67;;;25.80;73.00;;;;;;4977443;28;20126;-88
2023/06/13 10:15:47;;;;;;;4.30;2.63;;;25.90;75.60;;;;;;4995936;28;20035;-87
2023/06/13 10:18:15;;;;;;;3.88;2.38;;;26.00;76.90;;;;;;4985592;28;20042;-87
2023/06/13 10:20:43;;;;;;;4.88;2.63;;;26.10;74.50;;;;;;4961275;28;20049;-89
2023/06/13 10:23:13;;;;;;;5.18;2.53;;;26.20;73.90;;;;;;4978192;28;20096;-89
2023/06/13 10:25:42;;;;;;;6.57;2.60;;;26.20;73.80;;;;;;4972628;28;20046;-89
2023/06/13 10:28:24;;;;;;;6.68;2.70;;;26.30;73.10;;;;;;4962382;28;20108;-87
2023/06/13 10:31:06;;;;;;;7.70;2.38;;;26.40;74.80;;;;;;4978001;28;20046;-87
2023/06/13 10:33:52;;;;;;;5.38;2.50;;;26.50;74.20;;;;;;4978583;28;20050;-88
2023/06/13 10:36:46;;;;;;;5.70;2.85;;;26.40;70.90;;;;;;4996594;28;20057;-89
2023/06/13 10:39:34;;;;;;;4.77;2.50;;;26.50;70.40;;;;;;4965553;28;20046;-89
2023/06/13 10:42:11;;;;;;;5.03;2.90;;;26.50;77.60;;;;;;4994886;28;20081;-90
2023/06/13 10:44:42;;;;;;;6.72;2.47;;;26.60;72.70;;;;;;4981289;28;20042;-87
2023/06/13 10:47:08;;;;;;;5.00;2.28;;;26.60;70.50;;;;;;4960249;28;20085;-89
2023/06/13 10:49:39;;;;;;;5.82;2.30;;;26.70;73.30;;;;;;4995109;28;20160;-88
2023/06/13 10:52:12;;;;;;;7.18;2.60;;;26.70;72.00;;;;;;4974658;28;20138;-89
2023/06/13 10:54:47;;;;;;;5.07;2.28;;;26.80;75.40;;;;;;4961081;28;20187;-89
2023/06/13 10:57:13;;;;;;;7.35;2.85;;;26.80;71.80;;;;;;4988462;28;20038;-89
2023/06/13 10:59:40;;;;;;;8.50;2.38;;;26.90;72.00;;;;;;4995527;28;20107;-89
2023/06/13 11:02:15;;;;;;;5.03;2.55;;;26.90;71.40;;;;;;4994924;28;20536;-90
2023/06/13 11:04:48;;;;;;;5.32;2.60;;;27.00;70.30;;;;;;4987970;28;20414;-88
2023/06/13 11:07:21;;;;;;;4.20;2.08;;;27.10;71.10;;;;;;4997030;28;20474;-89
2023/06/13 11:10:12;;;;;;;6.05;2.17;;;27.10;70.20;;;;;;4977616;28;20042;-89
2023/06/13 11:12:40;;;;;;;6.90;2.40;;;27.10;70.40;;;;;;4959909;28;20046;-89
2023/06/13 11:15:24;;;;;;;6.60;2.63;;;27.10;70.00;;;;;;4995855;28;20497;-91
2023/06/13 11:18:08;;;;;;;7.63;2.58;;;27.10;78.30;;;;;;4968990;28;20041;-90
2023/06/13 11:20:53;;;;;;;5.75;2.40;;;27.20;69.40;;;;;;4970913;28;20050;-89
2023/06/13 11:23:22;;;;;;;5.90;2.35;;;27.30;69.50;;;;;;4969050;28;20043;-90
2023/06/13 11:25:52;;;;;;;4.20;2.40;;;27.30;71.30;;;;;;4988047;28;20085;-91
2023/06/13 11:28:18;;;;;;;5.03;2.80;;;27.30;74.20;;;;;;4970618;28;20042;-88
2023/06/13 11:30:47;;;;;;;4.85;2.45;;;27.40;72.40;;;;;;4994367;28;20370;-89
2023/06/13 11:33:13;;;;;;;7.55;2.50;;;27.50;73.90;;;;;;4970788;28;20054;-88
2023/06/13 11:35:49;;;;;;;7.97;2.35;;;27.50;72.60;;;;;;4971107;28;20047;-90
2023/06/13 11:38:34;;;;;;;7.32;2.75;;;27.60;74.00;;;;;;4972989;28;20053;-90
2023/06/13 11:41:00;;;;;;;7.63;2.78;;;27.70;71.30;;;;;;4989129;28;20046;-90
2023/06/13 11:43:28;;;;;;;7.07;2.30;;;27.80;72.10;;;;;;4974258;28;20058;-90
2023/06/13 11:46:01;;;;;;;4.35;2.30;;;27.80;71.00;;;;;;4992178;28;20046;-90
2023/06/13 11:48:27;;;;;;;5.87;2.80;;;27.80;73.40;;;;;;4972117;28;20043;-90
2023/06/13 11:51:07;;;;;;;5.32;2.50;;;27.90;72.20;;;;;;4971357;28;20062;-90
2023/06/13 11:53:32;;;;;;;5.85;2.65;;;27.90;71.80;;;;;;4966697;28;20068;-88
2023/06/13 11:56:05;;;;;;;6.65;2.40;;;28.00;72.00;;;;;;4974035;28;20038;-90
2023/06/13 11:58:31;;;;;;;5.03;2.50;;;27.90;71.20;;;;;;4992386;28;20449;-90
2023/06/13 12:00:57;;;;;;;5.75;2.80;;;28.00;73.40;;;;;;4986556;28;20073;-90
2023/06/13 12:03:23;;;;;;;5.95;2.42;;;28.00;74.00;;;;;;4986167;28;20050;-90
2023/06/13 12:05:51;;;;;;;4.75;2.42;;;28.10;74.20;;;;;;4990916;28;20039;-91
2023/06/13 12:08:16;;;;;;;5.68;2.60;;;28.20;72.10;;;;;;4991377;28;20038;-91
2023/06/13 12:10:47;;;;;;;5.35;2.72;;;28.20;72.40;;;;;;4979244;28;20091;-90
2023/06/13 12:13:20;;;;;;;6.50;2.97;;;28.20;74.30;;;;;;4973881;28;20520;-90
2023/06/13 12:15:46;;;;;;;6.72;2.60;;;28.20;73.20;;;;;;4954490;28;20050;-94
2023/06/13 12:18:12;;;;;;;6.22;2.80;;;28.30;72.00;;;;;;4976531;28;20113;-96
2023/06/13 12:20:48;;;;;;;4.53;2.45;;;28.20;74.20;;;;;;4970593;28;20043;-91
2023/06/13 12:23:17;;;;;;;3.90;2.35;;;28.30;75.10;;;;;;4982780;28;20053;-96
2023/06/13 12:25:43;;;;;;;6.85;2.75;;;28.30;72.00;;;;;;4977398;28;20050;-92
2023/06/13 12:28:15;;;;;;;7.35;2.65;;;28.40;74.00;;;;;;4976356;28;20038;-96
2023/06/13 12:30:46;;;;;;;5.82;2.55;;;28.50;73.70;;;;;;4973047;28;20506;-96
2023/06/13 12:33:16;;;;;;;5.90;2.35;;;28.60;73.80;;;;;;4974300;28;20038;-96
2023/06/13 12:36:04;;;;;;;4.28;2.28;;;28.70;74.00;;;;;;4977792;28;20050;-94
2023/06/13 12:38:31;;;;;;;6.15;2.45;;;28.80;72.90;;;;;;4989984;28;20044;-93
2023/06/13 12:41:02;;;;;;;6.50;2.70;;;28.80;71.90;;;;;;4992698;28;20042;-93
2023/06/13 12:43:29;;;;;;;4.75;2.60;;;28.80;72.90;;;;;;4976658;28;20233;-94
2023/06/13 12:45:57;;;;;;;8.55;2.67;;;28.80;75.10;;;;;;4992748;28;20046;-96
2023/06/13 12:48:23;;;;;;;5.90;2.00;;;28.90;75.50;;;;;;5431792;22;21048;-95
2023/06/13 12:50:54;;;;;;;5.78;2.47;;;29.00;73.00;;;;;;4995721;28;20412;-95
2023/06/13 12:53:22;;;;;;;9.73;2.60;;;29.00;71.30;;;;;;4973011;28;20042;-94
2023/06/13 12:55:50;;;;;;;6.35;2.13;;;29.10;72.60;;;;;;4980605;28;20077;-96
2023/06/13 12:58:36;;;;;;;4.57;2.28;;;29.10;75.40;;;;;;4978233;28;20054;-96
2023/06/13 13:03:38;;;;;;;7.07;2.63;;;29.40;73.70;;;;;;5130073;22;20492;-95
2023/06/13 13:06:06;;;;;;;7.95;2.40;;;29.50;73.10;;;;;;4973238;28;20046;-96
2023/06/13 13:08:34;;;;;;;5.20;2.35;;;29.50;71.30;;;;;;4981043;28;20061;-96
2023/06/13 13:10:59;;;;;;;5.13;2.38;;;29.40;71.80;;;;;;5007347;28;20100;-95
2023/06/13 13:13:25;;;;;;;5.30;2.70;;;29.50;72.70;;;;;;4983671;28;20041;-94
2023/06/13 13:15:51;;;;;;;4.90;2.10;;;29.40;71.70;;;;;;4980104;28;20555;-95
2023/06/13 13:18:23;;;;;;;7.75;2.58;;;29.50;71.80;;;;;;5002663;28;20037;-93
2023/06/13 13:20:48;;;;;;;5.60;2.22;;;29.60;72.50;;;;;;4988152;28;20148;-95
2023/06/13 13:23:14;;;;;;;5.10;2.50;;;29.60;72.10;;;;;;4988137;28;20077;-91